createdAt,value
2022-11-15T00:00:02.653Z,44.60
2022-11-15T00:03:06.208Z,39.10
2022-11-15T00:05:53.453Z,38.70
2022-11-15T00:08:40.437Z,38.10
2022-11-15T00:11:27.736Z,39.50
2022-11-15T00:14:14.297Z,39.50
2022-11-15T00:17:01.346Z,36.70
2022-11-15T00:19:47.931Z,39.20
2022-11-15T00:22:34.933Z,36.30
2022-11-15T00:25:21.651Z,37.10
2022-11-15T00:28:08.350Z,38.60
2022-11-15T00:30:55.468Z,39.50
2022-11-15T00:33:44.192Z,38.80
2022-11-15T00:36:34.407Z,39.10
2022-11-15T00:39:20.864Z,45.40
2022-11-15T00:42:07.394Z,40.30
2022-11-15T00:44:53.966Z,36.50
2022-11-15T00:47:40.585Z,42.20
2022-11-15T00:50:27.208Z,38.50
2022-11-15T00:53:14.089Z,34.80
2022-11-15T00:56:00.655Z,33.70
2022-11-15T00:58:47.237Z,35.10
2022-11-15T01:01:33.799Z,38.60
2022-11-15T01:04:20.126Z,36.60
2022-11-15T01:07:06.798Z,40.90
2022-11-15T01:09:53.826Z,42.20
2022-11-15T01:12:40.086Z,39.20
2022-11-15T01:15:26.810Z,38.80
2022-11-15T01:18:13.800Z,43.00
2022-11-15T01:21:00.471Z,41.50
2022-11-15T01:23:47.023Z,35.70
2022-11-15T01:26:34.739Z,35.30
2022-11-15T01:29:21.205Z,36.40
2022-11-15T01:32:08.147Z,36.20
2022-11-15T01:34:54.904Z,34.00
2022-11-15T01:37:41.205Z,32.50
2022-11-15T01:40:27.729Z,31.50
2022-11-15T01:43:36.909Z,36.00
2022-11-15T01:46:35.809Z,32.60
2022-11-15T01:49:24.853Z,32.60
2022-11-15T01:52:17.386Z,34.10
2022-11-15T01:55:07.324Z,31.30
2022-11-15T01:58:02.904Z,35.20
2022-11-15T02:00:50.842Z,36.40
2022-11-15T02:03:57.838Z,36.80
2022-11-15T02:06:45.419Z,33.00
2022-11-15T02:09:32.108Z,34.40
2022-11-15T02:12:22.069Z,36.40
2022-11-15T02:15:09.774Z,37.00
2022-11-15T02:18:02.515Z,32.60
2022-11-15T02:21:02.887Z,36.40
2022-11-15T02:24:20.737Z,35.20
2022-11-15T02:27:36.950Z,38.40
2022-11-15T02:30:37.420Z,33.30
2022-11-15T02:33:38.272Z,37.90
2022-11-15T02:37:03.876Z,34.80
2022-11-15T02:40:00.743Z,34.50
2022-11-15T02:43:15.763Z,32.00
2022-11-15T02:46:16.040Z,32.50
2022-11-15T02:49:02.408Z,52.90
2022-11-15T02:51:51.515Z,48.60
2022-11-15T02:54:38.146Z,34.10
2022-11-15T02:57:35.857Z,33.50
2022-11-15T03:00:22.722Z,33.10
2022-11-15T03:03:41.821Z,35.50
2022-11-15T03:06:51.147Z,32.80
2022-11-15T03:10:07.688Z,32.50
2022-11-15T03:13:01.165Z,33.20
2022-11-15T03:16:05.576Z,33.40
2022-11-15T03:19:00.444Z,31.10
2022-11-15T03:21:49.443Z,33.40
2022-11-15T03:24:39.146Z,31.90
2022-11-15T03:27:29.980Z,30.70
2022-11-15T03:30:17.847Z,33.70
2022-11-15T03:33:05.476Z,34.60
2022-11-15T03:35:53.847Z,31.40
2022-11-15T03:38:41.617Z,32.50
2022-11-15T03:41:42.940Z,33.60
2022-11-15T03:44:59.679Z,36.40
2022-11-15T03:47:58.844Z,35.20
2022-11-15T03:50:46.874Z,35.60
2022-11-15T03:53:33.993Z,32.30
2022-11-15T03:56:20.513Z,37.20
2022-11-15T03:59:07.059Z,37.70
2022-11-15T04:01:53.618Z,32.80
2022-11-15T04:04:40.329Z,31.70
2022-11-15T04:07:27.130Z,33.90
2022-11-15T04:10:14.412Z,32.50
2022-11-15T04:13:03.817Z,32.90
2022-11-15T04:15:50.401Z,33.60
2022-11-15T04:18:37.159Z,31.40
2022-11-15T04:21:42.724Z,34.90
2022-11-15T04:24:29.625Z,33.10
2022-11-15T04:27:16.325Z,36.00
2022-11-15T04:30:03.013Z,33.30
2022-11-15T04:32:50.011Z,34.40
2022-11-15T04:35:36.646Z,34.50
2022-11-15T04:38:23.421Z,34.40
2022-11-15T04:41:09.779Z,34.60
2022-11-15T04:43:56.456Z,34.20
2022-11-15T04:46:42.996Z,32.90
2022-11-15T04:49:29.467Z,30.90
2022-11-15T04:52:16.305Z,34.50
2022-11-15T04:58:14.558Z,28.80
2022-11-15T05:01:11.912Z,30.10
2022-11-15T05:04:17.187Z,29.60
2022-11-15T05:07:05.486Z,33.00
2022-11-15T05:09:52.421Z,32.20
2022-11-15T05:12:39.499Z,29.70
2022-11-15T05:15:26.495Z,34.90
2022-11-15T05:18:13.324Z,35.60
2022-11-15T05:21:08.584Z,34.10
2022-11-15T05:23:54.975Z,33.00
2022-11-15T05:26:41.583Z,34.40
2022-11-15T05:29:28.432Z,31.10
2022-11-15T05:32:15.032Z,32.60
2022-11-15T05:35:01.927Z,32.40
2022-11-15T05:37:49.579Z,35.20
2022-11-15T05:40:36.569Z,35.80
2022-11-15T05:43:24.781Z,31.90
2022-11-15T05:46:12.018Z,37.00
2022-11-15T05:49:00.020Z,41.20
2022-11-15T05:51:49.511Z,38.60
2022-11-15T05:54:37.706Z,34.60
2022-11-15T05:57:26.002Z,34.90
2022-11-15T06:00:13.786Z,30.10
2022-11-15T06:03:00.330Z,33.40
2022-11-15T06:05:46.956Z,36.50
2022-11-15T06:08:33.869Z,38.00
2022-11-15T06:11:20.544Z,40.70
2022-11-15T06:14:07.343Z,32.50
2022-11-15T06:16:54.170Z,30.60
2022-11-15T06:19:40.841Z,32.80
2022-11-15T06:22:27.428Z,34.10
2022-11-15T06:25:14.168Z,29.80
2022-11-15T06:28:00.887Z,30.20
2022-11-15T06:30:52.912Z,30.20
2022-11-15T06:33:40.977Z,32.00
2022-11-15T06:36:27.997Z,32.10
2022-11-15T06:39:15.290Z,31.60
2022-11-15T06:42:02.219Z,29.90
2022-11-15T06:44:48.993Z,37.50
2022-11-15T06:47:36.010Z,39.70
2022-11-15T06:50:23.100Z,39.40
2022-11-15T06:53:10.139Z,40.40
2022-11-15T06:56:03.954Z,44.10
2022-11-15T06:58:51.296Z,44.40
2022-11-15T07:01:37.717Z,41.40
2022-11-15T07:04:24.623Z,44.10
2022-11-15T07:07:11.459Z,42.10
2022-11-15T07:09:58.673Z,35.40
2022-11-15T07:12:48.726Z,36.10
2022-11-15T07:15:35.838Z,34.20
2022-11-15T07:18:23.070Z,34.70
2022-11-15T07:21:11.694Z,31.30
2022-11-15T07:23:57.988Z,30.90
2022-11-15T07:26:44.913Z,35.30
2022-11-15T07:29:32.372Z,32.90
2022-11-15T07:32:19.128Z,31.90
2022-11-15T07:35:06.417Z,36.50
2022-11-15T07:38:00.855Z,36.70
2022-11-15T07:40:48.711Z,37.20
2022-11-15T07:43:36.792Z,36.10
2022-11-15T07:46:25.038Z,41.90
2022-11-15T07:49:11.748Z,47.20
2022-11-15T07:51:58.556Z,49.60
2022-11-15T07:54:45.153Z,45.00
2022-11-15T07:57:32.118Z,43.10
2022-11-15T08:00:19.169Z,41.10
2022-11-15T08:03:11.280Z,47.10
2022-11-15T08:05:57.860Z,40.60
2022-11-15T08:08:44.480Z,40.70
2022-11-15T08:11:31.244Z,44.30
2022-11-15T08:14:18.014Z,44.00
2022-11-15T08:17:04.436Z,39.00
2022-11-15T08:19:51.591Z,36.90
2022-11-15T08:22:38.121Z,42.20
2022-11-15T08:25:27.667Z,39.20
2022-11-15T08:28:17.666Z,43.20
2022-11-15T08:31:05.212Z,39.40
2022-11-15T08:33:51.741Z,40.20
2022-11-15T08:36:44.867Z,43.60
2022-11-15T08:39:32.946Z,41.10
2022-11-15T08:42:20.142Z,40.60
2022-11-15T08:45:08.308Z,42.30
2022-11-15T08:47:55.007Z,38.00
2022-11-15T08:50:42.042Z,35.50
2022-11-15T08:53:29.231Z,44.30
2022-11-15T08:56:16.744Z,43.50
2022-11-15T08:59:03.667Z,43.60
2022-11-15T09:01:50.470Z,48.50
2022-11-15T09:04:37.770Z,51.10
2022-11-15T09:07:25.980Z,51.00
2022-11-15T09:10:12.767Z,48.80
2022-11-15T09:13:00.106Z,44.80
2022-11-15T09:15:47.202Z,48.40
2022-11-15T09:18:34.860Z,52.90
2022-11-15T09:21:23.084Z,52.50
2022-11-15T09:24:10.339Z,48.80
2022-11-15T09:26:58.075Z,49.80
2022-11-15T09:29:45.068Z,52.20
2022-11-15T09:32:38.797Z,49.40
2022-11-15T09:35:26.236Z,49.20
2022-11-15T09:38:13.770Z,50.20
2022-11-15T09:41:30.665Z,49.30
2022-11-15T09:44:35.298Z,42.80
2022-11-15T09:47:36.063Z,45.80
2022-11-15T09:50:47.947Z,49.90
2022-11-15T09:53:47.942Z,50.90
2022-11-15T09:56:28.078Z,49.70
2022-11-15T09:58:59.297Z,51.30
2022-11-15T10:01:50.636Z,53.10
2022-11-15T10:04:19.379Z,53.40
2022-11-15T10:06:59.442Z,52.60
2022-11-15T10:09:37.221Z,53.70
2022-11-15T10:12:05.796Z,52.50
2022-11-15T10:14:34.018Z,57.70
2022-11-15T10:17:08.369Z,60.50
2022-11-15T10:19:47.956Z,53.40
2022-11-15T10:22:36.043Z,58.50
2022-11-15T10:25:09.727Z,58.70
2022-11-15T10:27:38.132Z,53.90
2022-11-15T10:30:14.056Z,54.50
2022-11-15T10:32:44.517Z,62.20
2022-11-15T10:35:42.634Z,62.10
2022-11-15T10:38:12.977Z,61.70
2022-11-15T10:40:44.878Z,51.90
2022-11-15T10:43:20.135Z,51.30
2022-11-15T10:45:48.422Z,64.90
2022-11-15T10:48:23.538Z,61.80
2022-11-15T10:50:53.723Z,59.90
2022-11-15T10:53:31.749Z,60.10
2022-11-15T10:56:07.998Z,50.80
2022-11-15T10:58:39.543Z,57.30
2022-11-15T11:01:18.221Z,56.10
2022-11-15T11:04:00.334Z,48.30
2022-11-15T11:06:29.543Z,44.60
2022-11-15T11:09:03.797Z,46.00
2022-11-15T11:11:49.681Z,42.30
2022-11-15T11:14:33.338Z,52.60
2022-11-15T11:17:23.937Z,56.60
2022-11-15T11:19:58.827Z,47.60
2022-11-15T11:22:48.136Z,59.30
2022-11-15T11:25:35.725Z,58.00
2022-11-15T11:28:15.170Z,64.20
2022-11-15T11:30:55.483Z,64.30
2022-11-15T11:33:32.852Z,56.60
2022-11-15T11:36:23.121Z,61.00
2022-11-15T11:38:59.205Z,55.90
2022-11-15T11:41:55.401Z,46.40
2022-11-15T11:45:01.588Z,41.90
2022-11-15T11:47:40.135Z,47.60
2022-11-15T11:50:21.535Z,42.30
2022-11-15T11:53:05.846Z,48.50
2022-11-15T11:55:39.808Z,61.90
2022-11-15T11:58:38.204Z,63.10
2022-11-15T12:01:12.709Z,64.30
2022-11-15T12:03:46.959Z,62.60
2022-11-15T12:07:00.018Z,59.50
2022-11-15T12:09:44.542Z,66.60
2022-11-15T12:12:19.812Z,62.00
2022-11-15T12:14:53.182Z,60.20
2022-11-15T12:17:45.647Z,59.80
2022-11-15T12:20:28.111Z,61.00
2022-11-15T12:23:04.951Z,57.10
2022-11-15T12:25:43.015Z,49.80
2022-11-15T12:28:58.334Z,52.30
2022-11-15T12:31:38.902Z,57.30
2022-11-15T12:34:22.225Z,56.30
2022-11-15T12:36:52.874Z,52.30
2022-11-15T12:40:04.285Z,60.90
2022-11-15T12:42:43.672Z,52.90
2022-11-15T12:45:28.865Z,57.60
2022-11-15T12:48:18.849Z,52.70
2022-11-15T12:50:54.625Z,56.40
2022-11-15T12:53:26.043Z,53.20
2022-11-15T12:56:09.534Z,54.00
2022-11-15T12:59:01.286Z,51.30
2022-11-15T13:01:34.026Z,50.40
2022-11-15T13:04:22.587Z,47.80
2022-11-15T13:06:58.296Z,42.40
2022-11-15T13:09:38.982Z,45.40
2022-11-15T13:12:15.997Z,48.10
2022-11-15T13:14:59.585Z,46.50
2022-11-15T13:17:31.641Z,54.30
2022-11-15T13:20:03.224Z,48.30
2022-11-15T13:22:52.480Z,51.10
2022-11-15T13:26:03.051Z,52.30
2022-11-15T13:28:40.045Z,31.90
2022-11-15T13:31:24.244Z,52.20
2022-11-15T13:33:54.319Z,44.80
2022-11-15T13:36:30.850Z,52.80
2022-11-15T13:39:08.193Z,41.40
2022-11-15T13:41:45.762Z,48.20
2022-11-15T13:44:30.842Z,34.30
2022-11-15T13:47:06.937Z,36.80
2022-11-15T13:49:36.487Z,41.00
2022-11-15T13:52:12.885Z,43.50
2022-11-15T13:55:12.534Z,48.90
2022-11-15T13:57:57.212Z,51.80
2022-11-15T14:00:42.345Z,52.10
2022-11-15T14:03:20.153Z,53.60
2022-11-15T14:06:21.808Z,52.70
2022-11-15T14:09:09.873Z,41.10
2022-11-15T14:11:50.193Z,39.00
2022-11-15T14:14:25.274Z,39.60
2022-11-15T14:16:59.219Z,41.90
2022-11-15T14:19:27.571Z,39.40
2022-11-15T14:22:14.771Z,42.40
2022-11-15T14:24:46.974Z,51.30
2022-11-15T14:27:28.435Z,47.50
2022-11-15T14:30:01.481Z,48.00
2022-11-15T14:32:38.959Z,52.60
2022-11-15T14:35:15.832Z,55.40
2022-11-15T14:37:44.540Z,56.10
2022-11-15T14:40:21.979Z,52.60
2022-11-15T14:42:51.378Z,58.60
2022-11-15T14:45:23.164Z,43.60
2022-11-15T14:47:51.936Z,34.70
2022-11-15T14:50:21.836Z,50.10
2022-11-15T14:52:50.752Z,47.60
2022-11-15T14:55:24.491Z,50.60
2022-11-15T14:57:53.803Z,53.90
2022-11-15T15:00:23.731Z,55.30
2022-11-15T15:02:55.006Z,54.90
2022-11-15T15:05:33.718Z,53.20
2022-11-15T15:08:03.252Z,48.60
2022-11-15T15:10:42.566Z,44.10
2022-11-15T15:13:25.821Z,56.00
2022-11-15T15:15:55.044Z,43.20
2022-11-15T15:18:23.631Z,53.10
2022-11-15T15:21:01.316Z,44.20
2022-11-15T15:23:32.756Z,37.90
2022-11-15T15:26:01.238Z,51.70
2022-11-15T15:28:34.272Z,44.70
2022-11-15T15:31:05.294Z,29.00
2022-11-15T15:33:33.987Z,51.80
2022-11-15T15:36:02.701Z,52.50
2022-11-15T15:38:31.429Z,53.10
2022-11-15T15:41:04.049Z,62.30
2022-11-15T15:43:32.858Z,52.40
2022-11-15T15:46:01.264Z,57.30
2022-11-15T15:48:29.961Z,32.90
2022-11-15T15:50:58.380Z,51.70
2022-11-15T15:53:26.831Z,61.40
2022-11-15T15:55:55.226Z,63.60
2022-11-15T15:58:23.687Z,52.50
2022-11-15T16:00:53.959Z,51.30
2022-11-15T16:03:23.636Z,55.90
2022-11-15T16:05:52.486Z,55.20
2022-11-15T16:08:25.393Z,55.20
2022-11-15T16:10:54.710Z,50.90
2022-11-15T16:13:25.330Z,44.90
2022-11-15T16:15:56.213Z,41.00
2022-11-15T16:18:26.176Z,42.60
2022-11-15T16:21:05.111Z,37.30
2022-11-15T16:23:36.698Z,36.50
2022-11-15T16:26:33.815Z,34.60
2022-11-15T16:29:03.707Z,27.90
2022-11-15T16:31:35.505Z,37.60
2022-11-15T16:34:08.435Z,22.40
2022-11-15T16:36:37.415Z,36.60
2022-11-15T16:39:06.182Z,44.60
2022-11-15T16:41:34.824Z,44.80
2022-11-15T16:44:04.166Z,49.80
2022-11-15T16:46:32.895Z,49.00
2022-11-15T16:49:01.961Z,37.00
2022-11-15T16:51:32.197Z,43.30
2022-11-15T16:54:01.502Z,34.80
2022-11-15T16:56:31.504Z,36.00
2022-11-15T16:59:01.783Z,25.20
2022-11-15T17:01:51.036Z,44.10
2022-11-15T17:04:24.246Z,37.90
2022-11-15T17:06:55.529Z,35.30
2022-11-15T17:09:24.956Z,26.50
2022-11-15T17:11:56.844Z,26.70
2022-11-15T17:14:27.837Z,38.70
2022-11-15T17:16:56.556Z,38.00
2022-11-15T17:19:26.327Z,42.40
2022-11-15T17:21:57.978Z,37.10
2022-11-15T17:24:31.053Z,41.60
2022-11-15T17:27:00.487Z,23.70
2022-11-15T17:29:31.544Z,25.80
2022-11-15T17:32:00.312Z,39.80
2022-11-15T17:34:29.088Z,28.30
2022-11-15T17:37:02.092Z,27.20
2022-11-15T17:39:32.130Z,25.50
2022-11-15T17:42:01.302Z,25.40
2022-11-15T17:44:31.245Z,35.50
2022-11-15T17:47:00.173Z,31.80
2022-11-15T17:49:29.407Z,27.40
2022-11-15T17:51:58.853Z,34.90
2022-11-15T17:54:27.535Z,28.30
2022-11-15T17:56:58.330Z,38.80
2022-11-15T17:59:27.191Z,38.30
2022-11-15T18:01:56.285Z,40.80
2022-11-15T18:04:30.177Z,50.40
2022-11-15T18:06:59.061Z,45.60
2022-11-15T18:09:27.970Z,55.20
2022-11-15T18:11:59.695Z,53.20
2022-11-15T18:14:35.019Z,56.00
2022-11-15T18:17:04.487Z,57.50
2022-11-15T18:19:34.631Z,54.90
2022-11-15T18:22:05.887Z,54.90
2022-11-15T18:24:36.970Z,51.20
2022-11-15T18:27:06.821Z,57.50
2022-11-15T18:29:38.723Z,56.80
2022-11-15T18:32:12.614Z,60.70
2022-11-15T18:34:41.540Z,53.90
2022-11-15T18:37:10.662Z,50.70
2022-11-15T18:39:39.443Z,58.90
2022-11-15T18:42:08.205Z,52.60
2022-11-15T18:44:37.359Z,52.30
2022-11-15T18:47:05.808Z,50.20
2022-11-15T18:49:34.939Z,51.30
2022-11-15T18:52:03.806Z,34.50
2022-11-15T18:54:33.300Z,53.10
2022-11-15T18:57:02.554Z,43.00
2022-11-15T18:59:31.645Z,33.30
2022-11-15T19:02:04.294Z,40.70
2022-11-15T19:04:33.743Z,36.30
2022-11-15T19:07:03.438Z,43.40
2022-11-15T19:09:34.951Z,48.90
2022-11-15T19:12:03.949Z,51.10
2022-11-15T19:14:32.184Z,41.00
2022-11-15T19:17:03.098Z,47.70
2022-11-15T19:19:33.595Z,48.60
2022-11-15T19:22:02.601Z,45.20
2022-11-15T19:24:31.631Z,27.30
2022-11-15T19:27:00.507Z,46.60
2022-11-15T19:29:29.317Z,49.00
2022-11-15T19:31:58.210Z,50.90
2022-11-15T19:34:28.778Z,48.90
2022-11-15T19:36:58.158Z,43.10
2022-11-15T19:39:26.648Z,48.50
2022-11-15T19:41:54.722Z,52.30
2022-11-15T19:44:26.571Z,49.20
2022-11-15T19:46:54.852Z,53.20
2022-11-15T19:49:23.733Z,57.70
2022-11-15T19:51:52.079Z,52.20
2022-11-15T19:54:20.821Z,37.90
2022-11-15T19:56:49.133Z,56.40
2022-11-15T19:59:17.548Z,32.10
2022-11-15T20:01:46.951Z,52.30
2022-11-15T20:04:17.019Z,41.80
2022-11-15T20:06:46.760Z,32.70
2022-11-15T20:09:16.891Z,51.50
2022-11-15T20:11:46.176Z,45.20
2022-11-15T20:14:16.573Z,47.60
2022-11-15T20:16:47.906Z,36.70
2022-11-15T20:19:19.531Z,56.70
2022-11-15T20:21:48.022Z,56.60
2022-11-15T20:24:16.796Z,42.10
2022-11-15T20:26:45.426Z,41.30
2022-11-15T20:29:14.059Z,46.60
2022-11-15T20:31:43.248Z,43.90
2022-11-15T20:34:12.104Z,35.10
2022-11-15T20:36:40.748Z,43.00
2022-11-15T20:39:09.431Z,47.20
2022-11-15T20:41:38.372Z,46.30
2022-11-15T20:44:11.914Z,44.60
2022-11-15T20:46:42.794Z,28.70
2022-11-15T20:49:12.476Z,36.80
2022-11-15T20:51:43.051Z,39.00
2022-11-15T20:54:14.586Z,42.10
2022-11-15T20:56:44.916Z,24.00
2022-11-15T20:59:13.989Z,31.80
2022-11-15T21:01:44.606Z,32.10
2022-11-15T21:04:14.093Z,22.80
2022-11-15T21:06:47.619Z,28.10
2022-11-15T21:09:36.345Z,45.20
2022-11-15T21:12:13.641Z,34.70
2022-11-15T21:14:44.374Z,43.50
2022-11-15T21:17:13.090Z,48.40
2022-11-15T21:19:42.708Z,41.40
2022-11-15T21:22:14.433Z,46.70
2022-11-15T21:24:43.588Z,38.40
2022-11-15T21:27:12.221Z,48.20
2022-11-15T21:29:40.561Z,31.80
2022-11-15T21:32:10.423Z,34.30
2022-11-15T21:34:38.631Z,42.80
2022-11-15T21:37:07.173Z,36.30
2022-11-15T21:39:35.364Z,39.60
2022-11-15T21:42:03.979Z,30.00
2022-11-15T21:44:32.510Z,43.20
2022-11-15T21:47:00.738Z,47.40
2022-11-15T21:49:28.833Z,31.20
2022-11-15T21:51:56.964Z,40.60
2022-11-15T21:54:25.068Z,40.30
2022-11-15T21:56:53.284Z,25.30
2022-11-15T21:59:21.372Z,35.90
2022-11-15T22:02:09.024Z,44.10
2022-11-15T22:07:38.696Z,46.40
2022-11-15T22:10:10.242Z,26.10
2022-11-15T22:12:39.293Z,39.40
2022-11-15T22:15:08.274Z,41.20
2022-11-15T22:17:55.523Z,36.80
2022-11-15T22:20:43.526Z,34.00
2022-11-15T22:23:12.310Z,42.70
2022-11-15T22:25:40.850Z,36.00
2022-11-15T22:28:09.526Z,43.50
2022-11-15T22:30:39.236Z,42.10
2022-11-15T22:33:07.857Z,42.30
2022-11-15T22:35:36.742Z,44.30
2022-11-15T22:38:05.416Z,35.90
2022-11-15T22:40:34.316Z,42.30
2022-11-15T22:43:03.507Z,40.60
2022-11-15T22:45:31.684Z,40.30
2022-11-15T22:47:59.946Z,36.40
2022-11-15T22:50:28.547Z,43.40
2022-11-15T22:52:56.983Z,41.50
2022-11-15T22:55:25.326Z,31.40
2022-11-15T22:57:53.786Z,42.70
2022-11-15T23:00:22.128Z,40.30
2022-11-15T23:02:54.370Z,33.10
2022-11-15T23:05:22.826Z,43.60
2022-11-15T23:07:51.253Z,38.70
2022-11-15T23:10:38.253Z,35.50
2022-11-15T23:13:18.663Z,25.00
2022-11-15T23:16:08.661Z,39.30
2022-11-15T23:18:39.466Z,39.60
2022-11-15T23:21:37.020Z,39.60
2022-11-15T23:24:05.699Z,40.60
2022-11-15T23:26:33.969Z,42.40
2022-11-15T23:29:02.248Z,37.70
2022-11-15T23:31:56.391Z,38.60
2022-11-15T23:34:31.478Z,39.10
2022-11-15T23:37:00.090Z,41.80
2022-11-15T23:39:28.745Z,36.80
2022-11-15T23:41:57.190Z,36.40
2022-11-15T23:44:25.736Z,37.60
2022-11-15T23:46:54.167Z,35.30
2022-11-15T23:49:22.438Z,32.60
2022-11-15T23:51:50.422Z,33.50
2022-11-15T23:54:18.534Z,26.20
2022-11-15T23:56:46.543Z,23.70
2022-11-15T23:59:14.902Z,24.50
